sensor_id;sensor_type;location;lat;lon;timestamp;pressure;altitude;pressure_sealevel;temperature;humidity
46111;BME280;31849;55.992;37.252;2023-05-03T00:01:59;99227.22;;;8.56;39.68
46111;BME280;31849;55.992;37.252;2023-05-03T00:07:03;99228.06;;;8.58;39.68
46111;BME280;31849;55.992;37.252;2023-05-03T00:12:09;99222.91;;;8.62;39.73
46111;BME280;31849;55.992;37.252;2023-05-03T00:17:12;99216.00;;;8.54;39.69
46111;BME280;31849;55.992;37.252;2023-05-03T00:22:15;99221.19;;;8.58;39.73
46111;BME280;31849;55.992;37.252;2023-05-03T00:27:20;99215.16;;;8.64;39.47
46111;BME280;31849;55.992;37.252;2023-05-03T00:32:25;99204.75;;;8.59;39.82
46111;BME280;31849;55.992;37.252;2023-05-03T00:37:28;99187.50;;;8.57;39.71
46111;BME280;31849;55.992;37.252;2023-05-03T00:42:34;99164.97;;;8.43;40.13
46111;BME280;31849;55.992;37.252;2023-05-03T00:47:38;99167.59;;;8.48;40.62
46111;BME280;31849;55.992;37.252;2023-05-03T00:52:42;99160.69;;;8.52;40.34
46111;BME280;31849;55.992;37.252;2023-05-03T00:57:47;99157.25;;;8.67;40.24
46111;BME280;31849;55.992;37.252;2023-05-03T01:02:51;99168.50;;;8.67;40.14
46111;BME280;31849;55.992;37.252;2023-05-03T01:08:01;99165.91;;;8.72;40.92
46111;BME280;31849;55.992;37.252;2023-05-03T01:13:13;99168.50;;;8.76;40.24
46111;BME280;31849;55.992;37.252;2023-05-03T01:18:27;99156.38;;;8.74;40.39
46111;BME280;31849;55.992;37.252;2023-05-03T01:23:39;99148.59;;;8.86;39.46
46111;BME280;31849;55.992;37.252;2023-05-03T01:28:44;99149.47;;;8.97;39.62
46111;BME280;31849;55.992;37.252;2023-05-03T01:33:48;99138.25;;;8.88;40.03
46111;BME280;31849;55.992;37.252;2023-05-03T01:38:56;99138.22;;;9.00;39.62
46111;BME280;31849;55.992;37.252;2023-05-03T01:44:02;99139.94;;;8.92;39.73
46111;BME280;31849;55.992;37.252;2023-05-03T01:49:05;99133.03;;;8.86;40.41
46111;BME280;31849;55.992;37.252;2023-05-03T01:54:09;99112.31;;;8.77;40.01
46111;BME280;31849;55.992;37.252;2023-05-03T01:59:14;99129.56;;;8.95;40.20
46111;BME280;31849;55.992;37.252;2023-05-03T02:04:18;99125.28;;;8.92;40.33
46111;BME280;31849;55.992;37.252;2023-05-03T02:09:21;99120.09;;;8.95;39.67
46111;BME280;31849;55.992;37.252;2023-05-03T02:14:26;99125.25;;;9.09;39.67
46111;BME280;31849;55.992;37.252;2023-05-03T02:19:30;99114.00;;;9.12;39.64
46111;BME280;31849;55.992;37.252;2023-05-03T02:24:33;99116.56;;;9.24;39.72
46111;BME280;31849;55.992;37.252;2023-05-03T02:29:38;99121.75;;;9.24;39.39
46111;BME280;31849;55.992;37.252;2023-05-03T02:34:43;99113.06;;;9.38;39.28
46111;BME280;31849;55.992;37.252;2023-05-03T02:39:47;99113.91;;;9.46;39.23
46111;BME280;31849;55.992;37.252;2023-05-03T02:44:51;99115.59;;;9.58;39.45
46111;BME280;31849;55.992;37.252;2023-05-03T02:49:55;99106.03;;;9.66;38.84
46111;BME280;31849;55.992;37.252;2023-05-03T02:54:58;99117.25;;;9.77;39.16
46111;BME280;31849;55.992;37.252;2023-05-03T03:00:06;99127.56;;;9.91;38.97
46111;BME280;31849;55.992;37.252;2023-05-03T03:05:11;99132.69;;;10.07;38.42
46111;BME280;31849;55.992;37.252;2023-05-03T03:10:15;99131.69;;;10.26;38.32
46111;BME280;31849;55.992;37.252;2023-05-03T03:15:20;99138.50;;;10.47;38.56
46111;BME280;31849;55.992;37.252;2023-05-03T03:20:23;99136.00;;;10.30;38.82
46111;BME280;31849;55.992;37.252;2023-05-03T03:25:26;99131.66;;;10.35;38.56
46111;BME280;31849;55.992;37.252;2023-05-03T03:30:31;99143.69;;;10.50;38.68
46111;BME280;31849;55.992;37.252;2023-05-03T03:35:36;99132.41;;;10.53;38.97
46111;BME280;31849;55.992;37.252;2023-05-03T03:40:39;99146.28;;;10.50;39.72
46111;BME280;31849;55.992;37.252;2023-05-03T03:45:45;99158.47;;;10.45;40.33
46111;BME280;31849;55.992;37.252;2023-05-03T03:50:49;99153.28;;;10.44;40.66
46111;BME280;31849;55.992;37.252;2023-05-03T03:55:53;99167.03;;;10.55;40.62
46111;BME280;31849;55.992;37.252;2023-05-03T04:00:58;99166.13;;;10.64;41.22
46111;BME280;31849;55.992;37.252;2023-05-03T04:06:03;99166.28;;;10.42;41.47
46111;BME280;31849;55.992;37.252;2023-05-03T04:11:09;99180.09;;;10.49;41.89
46111;BME280;31849;55.992;37.252;2023-05-03T04:16:15;99180.94;;;10.48;42.21
46111;BME280;31849;55.992;37.252;2023-05-03T04:21:18;99179.13;;;10.64;41.97
46111;BME280;31849;55.992;37.252;2023-05-03T04:26:22;99176.56;;;10.58;42.34
46111;BME280;31849;55.992;37.252;2023-05-03T04:31:34;99184.34;;;10.59;43.08
46111;BME280;31849;55.992;37.252;2023-05-03T04:36:38;99189.69;;;10.36;44.38
46111;BME280;31849;55.992;37.252;2023-05-03T04:41:43;99189.59;;;10.53;44.79
46111;BME280;31849;55.992;37.252;2023-05-03T04:46:48;99187.09;;;10.36;45.88
46111;BME280;31849;55.992;37.252;2023-05-03T04:51:52;99187.22;;;10.10;47.33
46111;BME280;31849;55.992;37.252;2023-05-03T04:56:57;99187.13;;;10.25;47.32
46111;BME280;31849;55.992;37.252;2023-05-03T05:02:02;99179.28;;;10.33;47.82
46111;BME280;31849;55.992;37.252;2023-05-03T05:07:05;99177.44;;;10.56;47.28
46111;BME280;31849;55.992;37.252;2023-05-03T05:12:10;99183.41;;;10.69;47.16
46111;BME280;31849;55.992;37.252;2023-05-03T05:17:15;99172.78;;;10.97;47.05
46111;BME280;31849;55.992;37.252;2023-05-03T05:22:18;99185.41;;;11.40;46.81
46111;BME280;31849;55.992;37.252;2023-05-03T05:27:22;99179.25;;;11.49;46.68
46111;BME280;31849;55.992;37.252;2023-05-03T05:32:27;99189.50;;;11.61;46.62
46111;BME280;31849;55.992;37.252;2023-05-03T05:37:31;99178.84;;;11.85;46.21
46111;BME280;31849;55.992;37.252;2023-05-03T05:42:34;99184.91;;;11.85;45.93
46111;BME280;31849;55.992;37.252;2023-05-03T05:47:40;99182.53;;;12.37;45.36
46111;BME280;31849;55.992;37.252;2023-05-03T05:52:44;99175.38;;;12.49;44.73
46111;BME280;31849;55.992;37.252;2023-05-03T05:57:47;99187.53;;;13.07;43.72
46111;BME280;31849;55.992;37.252;2023-05-03T06:02:52;99186.34;;;13.73;42.77
46111;BME280;31849;55.992;37.252;2023-05-03T06:07:56;99197.78;;;17.06;37.65
46111;BME280;31849;55.992;37.252;2023-05-03T06:12:59;99193.25;;;18.34;34.47
46111;BME280;31849;55.992;37.252;2023-05-03T06:18:05;99194.38;;;19.77;34.20
46111;BME280;31849;55.992;37.252;2023-05-03T06:23:09;99199.59;;;20.18;31.89
46111;BME280;31849;55.992;37.252;2023-05-03T06:28:12;99202.78;;;20.82;30.77
46111;BME280;31849;55.992;37.252;2023-05-03T06:33:17;99208.16;;;24.61;25.63
46111;BME280;31849;55.992;37.252;2023-05-03T06:38:20;99224.75;;;24.64;25.33
46111;BME280;31849;55.992;37.252;2023-05-03T06:43:24;99221.94;;;24.24;25.08
46111;BME280;31849;55.992;37.252;2023-05-03T06:48:29;99226.41;;;22.41;27.19
46111;BME280;31849;55.992;37.252;2023-05-03T06:53:32;99222.75;;;22.60;27.17
46111;BME280;31849;55.992;37.252;2023-05-03T06:58:36;99228.59;;;24.31;24.79
46111;BME280;31849;55.992;37.252;2023-05-03T07:03:41;99228.91;;;23.98;24.73
46111;BME280;31849;55.992;37.252;2023-05-03T07:08:45;99224.97;;;22.68;26.38
46111;BME280;31849;55.992;37.252;2023-05-03T07:13:49;99235.56;;;22.68;26.81
46111;BME280;31849;55.992;37.252;2023-05-03T07:18:54;99230.59;;;23.54;25.36
46111;BME280;31849;55.992;37.252;2023-05-03T07:23:58;99232.22;;;23.12;25.90
46111;BME280;31849;55.992;37.252;2023-05-03T07:29:01;99244.28;;;23.32;25.53
46111;BME280;31849;55.992;37.252;2023-05-03T07:34:06;99235.44;;;24.07;24.62
46111;BME280;31849;55.992;37.252;2023-05-03T07:39:10;99246.13;;;22.99;25.52
46111;BME280;31849;55.992;37.252;2023-05-03T07:44:14;99248.81;;;21.32;27.51
46111;BME280;31849;55.992;37.252;2023-05-03T07:49:18;99250.94;;;20.70;28.12
46111;BME280;31849;55.992;37.252;2023-05-03T07:54:22;99252.69;;;19.30;30.02
46111;BME280;31849;55.992;37.252;2023-05-03T07:59:26;99261.06;;;18.27;31.61
46111;BME280;31849;55.992;37.252;2023-05-03T08:04:31;99268.13;;;18.25;31.46
46111;BME280;31849;55.992;37.252;2023-05-03T08:09:34;99255.31;;;17.92;32.28
46111;BME280;31849;55.992;37.252;2023-05-03T08:14:38;99282.00;;;17.55;33.15
46111;BME280;31849;55.992;37.252;2023-05-03T08:19:43;99271.56;;;17.27;33.61
46111;BME280;31849;55.992;37.252;2023-05-03T08:24:47;99269.44;;;17.63;32.96
46111;BME280;31849;55.992;37.252;2023-05-03T08:29:50;99269.91;;;18.25;32.32
46111;BME280;31849;55.992;37.252;2023-05-03T08:34:55;99274.13;;;19.21;30.98
46111;BME280;31849;55.992;37.252;2023-05-03T08:40:00;99265.69;;;19.55;30.13
46111;BME280;31849;55.992;37.252;2023-05-03T08:45:09;99261.63;;;20.29;29.48
46111;BME280;31849;55.992;37.252;2023-05-03T08:50:15;99258.50;;;20.20;29.45
46111;BME280;31849;55.992;37.252;2023-05-03T08:55:18;99258.72;;;19.95;29.91
46111;BME280;31849;55.992;37.252;2023-05-03T09:00:26;99265.91;;;19.92;29.76
46111;BME280;31849;55.992;37.252;2023-05-03T09:05:34;99258.00;;;19.08;31.35
46111;BME280;31849;55.992;37.252;2023-05-03T09:10:40;99269.56;;;18.34;32.35
46111;BME280;31849;55.992;37.252;2023-05-03T09:15:52;99272.63;;;17.73;32.66
46111;BME280;31849;55.992;37.252;2023-05-03T09:20:57;99295.53;;;17.43;33.68
46111;BME280;31849;55.992;37.252;2023-05-03T09:26:01;99288.53;;;17.16;33.90
46111;BME280;31849;55.992;37.252;2023-05-03T09:31:05;99287.91;;;17.08;34.27
46111;BME280;31849;55.992;37.252;2023-05-03T09:36:15;99298.94;;;17.19;34.85
46111;BME280;31849;55.992;37.252;2023-05-03T09:41:28;99292.78;;;18.23;33.75
46111;BME280;31849;55.992;37.252;2023-05-03T09:46:32;99308.81;;;18.40;33.43
46111;BME280;31849;55.992;37.252;2023-05-03T09:51:37;99309.69;;;18.17;33.63
46111;BME280;31849;55.992;37.252;2023-05-03T09:56:43;99309.50;;;17.45;34.79
46111;BME280;31849;55.992;37.252;2023-05-03T10:01:49;99318.06;;;16.65;37.67
46111;BME280;31849;55.992;37.252;2023-05-03T10:06:59;99328.94;;;16.52;38.52
46111;BME280;31849;55.992;37.252;2023-05-03T10:12:06;99342.47;;;17.00;37.76
46111;BME280;31849;55.992;37.252;2023-05-03T10:17:15;99335.53;;;16.97;38.41
46111;BME280;31849;55.992;37.252;2023-05-03T10:22:20;99327.97;;;17.15;38.72
46111;BME280;31849;55.992;37.252;2023-05-03T10:27:24;99328.22;;;17.35;37.72
46111;BME280;31849;55.992;37.252;2023-05-03T10:32:30;99332.06;;;17.52;37.54
46111;BME280;31849;55.992;37.252;2023-05-03T10:37:39;99337.00;;;17.06;40.69
46111;BME280;31849;55.992;37.252;2023-05-03T10:42:45;99352.91;;;16.70;42.20
46111;BME280;31849;55.992;37.252;2023-05-03T10:48:16;99361.31;;;15.87;44.63
46111;BME280;31849;55.992;37.252;2023-05-03T10:53:40;99330.28;;;15.69;44.18
46111;BME280;31849;55.992;37.252;2023-05-03T10:58:47;99347.00;;;16.63;41.36
46111;BME280;31849;55.992;37.252;2023-05-03T11:03:54;99341.47;;;17.31;39.86
46111;BME280;31849;55.992;37.252;2023-05-03T11:09:05;99332.34;;;17.43;38.93
46111;BME280;31849;55.992;37.252;2023-05-03T11:14:09;99315.69;;;17.15;38.04
46111;BME280;31849;55.992;37.252;2023-05-03T11:19:15;99334.88;;;17.17;38.57
46111;BME280;31849;55.992;37.252;2023-05-03T11:24:20;99337.28;;;17.25;36.27
46111;BME280;31849;55.992;37.252;2023-05-03T11:29:24;99332.91;;;17.52;35.47
46111;BME280;31849;55.992;37.252;2023-05-03T11:34:28;99320.28;;;17.90;35.10
46111;BME280;31849;55.992;37.252;2023-05-03T11:39:35;99315.97;;;18.13;34.90
46111;BME280;31849;55.992;37.252;2023-05-03T11:44:39;99310.28;;;17.73;35.05
46111;BME280;31849;55.992;37.252;2023-05-03T11:49:49;99300.78;;;17.43;37.42
46111;BME280;31849;55.992;37.252;2023-05-03T11:54:55;99329.06;;;17.36;37.16
46111;BME280;31849;55.992;37.252;2023-05-03T12:00:09;99312.44;;;17.07;37.50
46111;BME280;31849;55.992;37.252;2023-05-03T12:05:14;99323.03;;;17.32;37.49
46111;BME280;31849;55.992;37.252;2023-05-03T12:10:22;99311.34;;;16.84;37.58
46111;BME280;31849;55.992;37.252;2023-05-03T12:15:29;99324.88;;;17.02;36.74
46111;BME280;31849;55.992;37.252;2023-05-03T12:20:36;99321.19;;;17.08;36.01
46111;BME280;31849;55.992;37.252;2023-05-03T12:25:44;99332.22;;;17.72;35.70
46111;BME280;31849;55.992;37.252;2023-05-03T12:30:50;99318.28;;;17.97;35.82
46111;BME280;31849;55.992;37.252;2023-05-03T12:35:54;99319.75;;;17.79;36.26
46111;BME280;31849;55.992;37.252;2023-05-03T12:41:01;99319.97;;;17.46;36.16
46111;BME280;31849;55.992;37.252;2023-05-03T12:46:09;99320.22;;;17.38;34.64
46111;BME280;31849;55.992;37.252;2023-05-03T12:51:33;99324.97;;;17.54;34.02
46111;BME280;31849;55.992;37.252;2023-05-03T12:56:38;99327.59;;;17.27;34.09
46111;BME280;31849;55.992;37.252;2023-05-03T13:01:42;99319.13;;;17.71;33.57
46111;BME280;31849;55.992;37.252;2023-05-03T13:06:49;99326.69;;;17.55;33.19
46111;BME280;31849;55.992;37.252;2023-05-03T13:12:02;99340.69;;;17.55;33.36
46111;BME280;31849;55.992;37.252;2023-05-03T13:17:06;99327.28;;;17.63;33.55
46111;BME280;31849;55.992;37.252;2023-05-03T13:22:10;99323.63;;;17.94;33.37
46111;BME280;31849;55.992;37.252;2023-05-03T13:27:15;99334.31;;;18.15;32.23
46111;BME280;31849;55.992;37.252;2023-05-03T13:32:20;99334.50;;;17.83;32.15
46111;BME280;31849;55.992;37.252;2023-05-03T13:37:23;99328.00;;;17.68;31.64
46111;BME280;31849;55.992;37.252;2023-05-03T13:42:28;99333.97;;;17.47;29.81
46111;BME280;31849;55.992;37.252;2023-05-03T13:47:32;99329.56;;;17.47;29.45
46111;BME280;31849;55.992;37.252;2023-05-03T13:52:55;99342.44;;;17.28;28.87
46111;BME280;31849;55.992;37.252;2023-05-03T13:58:00;99336.03;;;17.37;28.55
46111;BME280;31849;55.992;37.252;2023-05-03T14:03:04;99334.38;;;17.34;28.54
46111;BME280;31849;55.992;37.252;2023-05-03T14:08:08;99325.97;;;17.50;28.19
46111;BME280;31849;55.992;37.252;2023-05-03T14:13:14;99343.09;;;17.62;26.96
46111;BME280;31849;55.992;37.252;2023-05-03T14:18:17;99337.09;;;17.58;26.84
46111;BME280;31849;55.992;37.252;2023-05-03T14:23:21;99331.53;;;17.67;26.66
46111;BME280;31849;55.992;37.252;2023-05-03T14:28:26;99324.66;;;17.63;25.79
46111;BME280;31849;55.992;37.252;2023-05-03T14:33:30;99334.81;;;17.47;25.99
46111;BME280;31849;55.992;37.252;2023-05-03T14:38:34;99331.94;;;17.28;25.75
46111;BME280;31849;55.992;37.252;2023-05-03T14:43:39;99333.47;;;17.35;25.49
46111;BME280;31849;55.992;37.252;2023-05-03T14:48:43;99344.47;;;17.47;25.34
46111;BME280;31849;55.992;37.252;2023-05-03T14:53:46;99353.81;;;17.29;25.01
46111;BME280;31849;55.992;37.252;2023-05-03T14:58:51;99335.38;;;17.02;24.54
46111;BME280;31849;55.992;37.252;2023-05-03T15:03:55;99348.81;;;16.61;24.62
46111;BME280;31849;55.992;37.252;2023-05-03T15:08:59;99367.81;;;16.38;24.98
46111;BME280;31849;55.992;37.252;2023-05-03T15:14:04;99355.19;;;16.21;24.45
46111;BME280;31849;55.992;37.252;2023-05-03T15:19:08;99373.09;;;16.05;24.38
46111;BME280;31849;55.992;37.252;2023-05-03T15:24:11;99373.53;;;15.87;24.22
46111;BME280;31849;55.992;37.252;2023-05-03T15:29:17;99379.97;;;15.73;24.58
46111;BME280;31849;55.992;37.252;2023-05-03T15:34:20;99377.63;;;15.62;24.63
46111;BME280;31849;55.992;37.252;2023-05-03T15:39:24;99384.97;;;15.46;24.19
46111;BME280;31849;55.992;37.252;2023-05-03T15:44:29;99387.13;;;15.29;23.95
46111;BME280;31849;55.992;37.252;2023-05-03T15:49:32;99382.22;;;15.15;23.62
46111;BME280;31849;55.992;37.252;2023-05-03T15:54:36;99387.03;;;14.94;23.98
46111;BME280;31849;55.992;37.252;2023-05-03T15:59:41;99400.22;;;14.90;23.59
46111;BME280;31849;55.992;37.252;2023-05-03T16:04:45;99402.22;;;14.77;23.71
46111;BME280;31849;55.992;37.252;2023-05-03T16:09:51;99421.59;;;14.68;23.78
46111;BME280;31849;55.992;37.252;2023-05-03T16:14:56;99414.59;;;14.69;23.63
46111;BME280;31849;55.992;37.252;2023-05-03T16:20:01;99422.63;;;14.61;23.84
46111;BME280;31849;55.992;37.252;2023-05-03T16:25:06;99412.38;;;14.47;24.20
46111;BME280;31849;55.992;37.252;2023-05-03T16:30:13;99434.13;;;14.51;23.87
46111;BME280;31849;55.992;37.252;2023-05-03T16:35:17;99436.75;;;14.49;23.68
46111;BME280;31849;55.992;37.252;2023-05-03T16:40:21;99444.69;;;14.45;24.23
46111;BME280;31849;55.992;37.252;2023-05-03T16:45:26;99446.66;;;14.32;23.46
46111;BME280;31849;55.992;37.252;2023-05-03T16:50:30;99466.88;;;14.22;24.62
46111;BME280;31849;55.992;37.252;2023-05-03T16:55:33;99468.97;;;14.03;24.89
46111;BME280;31849;55.992;37.252;2023-05-03T17:00:38;99487.28;;;14.00;24.78
46111;BME280;31849;55.992;37.252;2023-05-03T17:05:42;99481.47;;;13.82;25.09
46111;BME280;31849;55.992;37.252;2023-05-03T17:10:46;99488.75;;;13.62;25.61
46111;BME280;31849;55.992;37.252;2023-05-03T17:15:51;99512.25;;;13.63;26.23
46111;BME280;31849;55.992;37.252;2023-05-03T17:20:58;99536.94;;;13.41;28.61
46111;BME280;31849;55.992;37.252;2023-05-03T17:26:02;99558.91;;;13.16;29.45
46111;BME280;31849;55.992;37.252;2023-05-03T17:31:08;99573.22;;;12.81;32.22
46111;BME280;31849;55.992;37.252;2023-05-03T17:36:11;99573.38;;;12.64;32.77
46111;BME280;31849;55.992;37.252;2023-05-03T17:41:15;99583.09;;;12.44;32.84
46111;BME280;31849;55.992;37.252;2023-05-03T17:46:20;99570.13;;;12.36;33.42
46111;BME280;31849;55.992;37.252;2023-05-03T17:51:23;99579.75;;;12.29;34.11
46111;BME280;31849;55.992;37.252;2023-05-03T17:56:27;99575.50;;;12.16;34.31
46111;BME280;31849;55.992;37.252;2023-05-03T18:01:32;99572.03;;;12.12;34.59
46111;BME280;31849;55.992;37.252;2023-05-03T18:06:35;99571.28;;;11.98;34.34
46111;BME280;31849;55.992;37.252;2023-05-03T18:11:39;99567.81;;;11.90;34.65
46111;BME280;31849;55.992;37.252;2023-05-03T18:16:47;99561.81;;;11.74;35.52
46111;BME280;31849;55.992;37.252;2023-05-03T18:21:52;99565.38;;;11.59;35.84
46111;BME280;31849;55.992;37.252;2023-05-03T18:26:56;99570.66;;;11.48;36.05
46111;BME280;31849;55.992;37.252;2023-05-03T18:32:01;99566.34;;;11.39;36.39
46111;BME280;31849;55.992;37.252;2023-05-03T18:37:05;99566.41;;;11.24;36.98
46111;BME280;31849;55.992;37.252;2023-05-03T18:42:09;99566.44;;;11.10;37.27
46111;BME280;31849;55.992;37.252;2023-05-03T18:47:15;99579.47;;;11.02;37.56
46111;BME280;31849;55.992;37.252;2023-05-03T18:52:22;99576.88;;;11.04;37.02
46111;BME280;31849;55.992;37.252;2023-05-03T18:57:25;99588.16;;;10.94;37.79
46111;BME280;31849;55.992;37.252;2023-05-03T19:02:31;99584.72;;;10.71;37.77
46111;BME280;31849;55.992;37.252;2023-05-03T19:07:34;99594.28;;;10.38;38.74
46111;BME280;31849;55.992;37.252;2023-05-03T19:12:39;99600.28;;;10.13;39.34
46111;BME280;31849;55.992;37.252;2023-05-03T19:17:45;99608.00;;;9.88;40.31
46111;BME280;31849;55.992;37.252;2023-05-03T19:22:48;99624.38;;;9.62;41.05
46111;BME280;31849;55.992;37.252;2023-05-03T19:27:52;99631.22;;;9.42;41.21
46111;BME280;31849;55.992;37.252;2023-05-03T19:32:57;99632.03;;;9.31;41.14
46111;BME280;31849;55.992;37.252;2023-05-03T19:38:00;99634.56;;;9.22;40.75
46111;BME280;31849;55.992;37.252;2023-05-03T19:43:04;99644.00;;;9.11;40.98
46111;BME280;31849;55.992;37.252;2023-05-03T19:48:09;99630.03;;;8.90;41.40
46111;BME280;31849;55.992;37.252;2023-05-03T19:53:15;99649.03;;;8.88;40.71
46111;BME280;31849;55.992;37.252;2023-05-03T19:58:18;99657.59;;;8.77;41.67
46111;BME280;31849;55.992;37.252;2023-05-03T20:03:23;99662.69;;;8.70;41.68
46111;BME280;31849;55.992;37.252;2023-05-03T20:08:29;99659.94;;;8.50;42.04
46111;BME280;31849;55.992;37.252;2023-05-03T20:13:33;99658.09;;;8.38;41.94
46111;BME280;31849;55.992;37.252;2023-05-03T20:18:38;99664.91;;;8.31;42.45
46111;BME280;31849;55.992;37.252;2023-05-03T20:23:42;99663.88;;;8.10;42.61
46111;BME280;31849;55.992;37.252;2023-05-03T20:28:45;99667.03;;;7.88;43.09
46111;BME280;31849;55.992;37.252;2023-05-03T20:33:50;99672.88;;;7.71;43.78
46111;BME280;31849;55.992;37.252;2023-05-03T20:38:54;99676.19;;;7.60;43.49
46111;BME280;31849;55.992;37.252;2023-05-03T20:43:57;99670.88;;;7.49;44.26
46111;BME280;31849;55.992;37.252;2023-05-03T20:49:03;99684.63;;;7.46;45.40
46111;BME280;31849;55.992;37.252;2023-05-03T20:54:09;99689.63;;;7.34;45.31
46111;BME280;31849;55.992;37.252;2023-05-03T20:59:12;99686.91;;;7.23;45.33
46111;BME280;31849;55.992;37.252;2023-05-03T21:04:17;99691.84;;;7.09;45.89
46111;BME280;31849;55.992;37.252;2023-05-03T21:09:20;99697.69;;;6.96;44.34
46111;BME280;31849;55.992;37.252;2023-05-03T21:14:25;99701.81;;;6.83;45.79
46111;BME280;31849;55.992;37.252;2023-05-03T21:19:31;99704.97;;;6.68;47.81
46111;BME280;31849;55.992;37.252;2023-05-03T21:24:34;99713.16;;;6.44;48.11
46111;BME280;31849;55.992;37.252;2023-05-03T21:29:37;99712.03;;;6.29;48.49
46111;BME280;31849;55.992;37.252;2023-05-03T21:34:42;99697.97;;;6.13;49.34
46111;BME280;31849;55.992;37.252;2023-05-03T21:39:47;99709.97;;;6.11;49.29
46111;BME280;31849;55.992;37.252;2023-05-03T21:45:05;99721.91;;;6.06;49.50
46111;BME280;31849;55.992;37.252;2023-05-03T21:50:11;99719.94;;;5.94;49.22
46111;BME280;31849;55.992;37.252;2023-05-03T21:55:15;99725.69;;;5.81;49.56
46111;BME280;31849;55.992;37.252;2023-05-03T22:00:18;99730.72;;;5.75;48.87
46111;BME280;31849;55.992;37.252;2023-05-03T22:05:24;99727.19;;;5.71;50.49
46111;BME280;31849;55.992;37.252;2023-05-03T22:10:27;99725.16;;;5.58;50.19
46111;BME280;31849;55.992;37.252;2023-05-03T22:15:31;99730.16;;;5.50;50.71
46111;BME280;31849;55.992;37.252;2023-05-03T22:20:36;99726.66;;;5.46;51.31
46111;BME280;31849;55.992;37.252;2023-05-03T22:25:39;99729.94;;;5.39;50.15
46111;BME280;31849;55.992;37.252;2023-05-03T22:30:43;99725.41;;;5.29;50.92
46111;BME280;31849;55.992;37.252;2023-05-03T22:35:48;99740.88;;;5.29;50.79
46111;BME280;31849;55.992;37.252;2023-05-03T22:40:51;99736.44;;;5.23;49.56
46111;BME280;31849;55.992;37.252;2023-05-03T22:45:55;99730.25;;;5.15;50.32
46111;BME280;31849;55.992;37.252;2023-05-03T22:51:00;99735.28;;;5.12;49.99
46111;BME280;31849;55.992;37.252;2023-05-03T22:56:03;99742.25;;;5.15;50.14
46111;BME280;31849;55.992;37.252;2023-05-03T23:01:10;99744.84;;;5.16;49.97
46111;BME280;31849;55.992;37.252;2023-05-03T23:06:15;99743.91;;;5.13;49.90
46111;BME280;31849;55.992;37.252;2023-05-03T23:11:18;99752.44;;;5.10;49.52
46111;BME280;31849;55.992;37.252;2023-05-03T23:16:22;99747.09;;;5.02;49.75
46111;BME280;31849;55.992;37.252;2023-05-03T23:21:27;99755.03;;;5.10;48.86
46111;BME280;31849;55.992;37.252;2023-05-03T23:26:31;99757.50;;;5.05;48.88
46111;BME280;31849;55.992;37.252;2023-05-03T23:31:34;99759.00;;;4.97;48.74
46111;BME280;31849;55.992;37.252;2023-05-03T23:36:41;99757.34;;;4.99;48.53
46111;BME280;31849;55.992;37.252;2023-05-03T23:41:44;99760.66;;;4.95;48.67
46111;BME280;31849;55.992;37.252;2023-05-03T23:46:48;99762.38;;;4.95;48.21
46111;BME280;31849;55.992;37.252;2023-05-03T23:51:53;99757.22;;;4.95;48.86
46111;BME280;31849;55.992;37.252;2023-05-03T23:56:56;99764.56;;;4.79;49.37
